createdAt,value
2023-01-11T00:00:30.779Z,20.81
2023-01-11T00:01:32.295Z,20.77
2023-01-11T00:02:32.985Z,20.81
2023-01-11T00:03:33.610Z,20.77
2023-01-11T00:04:34.249Z,20.78
2023-01-11T00:05:34.877Z,20.70
2023-01-11T00:06:35.650Z,20.65
2023-01-11T00:07:36.251Z,20.65
2023-01-11T00:08:36.845Z,20.67
2023-01-11T00:09:37.438Z,20.65
2023-01-11T00:10:38.040Z,20.63
2023-01-11T00:11:38.636Z,20.51
2023-01-11T00:12:39.283Z,20.51
2023-01-11T00:13:39.878Z,20.56
2023-01-11T00:14:40.477Z,20.47
2023-01-11T00:15:41.164Z,20.40
2023-01-11T00:16:41.747Z,20.47
2023-01-11T00:17:42.345Z,20.40
2023-01-11T00:18:42.947Z,20.31
2023-01-11T00:19:43.539Z,20.34
2023-01-11T00:20:44.990Z,20.29
2023-01-11T00:21:45.579Z,20.31
2023-01-11T00:22:46.177Z,20.31
2023-01-11T00:23:46.924Z,20.25
2023-01-11T00:24:47.531Z,20.19
2023-01-11T00:25:48.119Z,20.16
2023-01-11T00:26:48.722Z,20.19
2023-01-11T00:27:49.339Z,20.14
2023-01-11T00:28:49.972Z,20.18
2023-01-11T00:29:50.572Z,20.18
2023-01-11T00:30:51.170Z,20.14
2023-01-11T00:31:52.613Z,20.02
2023-01-11T00:32:53.257Z,20.03
2023-01-11T00:33:53.901Z,20.09
2023-01-11T00:34:54.633Z,20.03
2023-01-11T00:35:55.223Z,20.04
2023-01-11T00:36:55.820Z,19.92
2023-01-11T00:37:56.412Z,19.91
2023-01-11T00:38:57.015Z,19.99
2023-01-11T00:39:57.604Z,19.94
2023-01-11T00:40:58.208Z,19.96
2023-01-11T00:41:58.800Z,19.95
2023-01-11T00:42:59.392Z,19.91
2023-01-11T00:43:59.988Z,19.88
2023-01-11T00:45:00.584Z,19.92
2023-01-11T00:46:01.261Z,19.91
2023-01-11T00:47:01.861Z,19.84
2023-01-11T00:48:02.462Z,19.89
2023-01-11T00:49:03.074Z,19.88
2023-01-11T00:50:03.675Z,19.86
2023-01-11T00:51:04.254Z,19.84
2023-01-11T00:52:04.862Z,19.82
2023-01-11T00:53:05.457Z,19.79
2023-01-11T00:54:06.049Z,19.81
2023-01-11T00:55:06.644Z,19.73
2023-01-11T00:56:07.240Z,19.79
2023-01-11T00:57:07.839Z,19.73
2023-01-11T00:58:08.436Z,19.77
2023-01-11T00:59:09.025Z,19.67
2023-01-11T01:00:09.623Z,19.71
2023-01-11T01:01:10.236Z,19.67
2023-01-11T01:02:10.882Z,19.73
2023-01-11T01:03:11.475Z,19.63
2023-01-11T01:04:12.066Z,19.69
2023-01-11T01:05:12.727Z,19.67
2023-01-11T01:06:13.321Z,19.62
2023-01-11T01:07:13.933Z,19.58
2023-01-11T01:08:14.599Z,19.59
2023-01-11T01:09:15.196Z,19.62
2023-01-11T01:10:15.797Z,19.56
2023-01-11T01:11:16.387Z,19.56
2023-01-11T01:12:16.991Z,19.55
2023-01-11T01:13:17.581Z,19.51
2023-01-11T01:14:18.323Z,19.47
2023-01-11T01:15:18.922Z,19.55
2023-01-11T01:16:19.547Z,19.48
2023-01-11T01:17:20.142Z,19.47
2023-01-11T01:18:20.733Z,19.48
2023-01-11T01:19:21.331Z,19.51
2023-01-11T01:20:21.928Z,19.45
2023-01-11T01:21:22.594Z,19.36
2023-01-11T01:22:23.183Z,19.49
2023-01-11T01:23:23.792Z,19.48
2023-01-11T01:24:24.458Z,19.47
2023-01-11T01:25:25.121Z,19.44
2023-01-11T01:26:25.692Z,19.47
2023-01-11T01:27:26.292Z,19.40
2023-01-11T01:28:26.950Z,19.41
2023-01-11T01:29:27.542Z,19.49
2023-01-11T01:30:28.143Z,19.41
2023-01-11T01:31:28.790Z,19.37
2023-01-11T01:32:29.391Z,19.39
2023-01-11T01:33:29.981Z,19.37
2023-01-11T01:34:30.570Z,19.37
2023-01-11T01:35:31.216Z,19.40
2023-01-11T01:36:32.663Z,19.39
2023-01-11T01:37:33.306Z,19.39
2023-01-11T01:38:33.900Z,19.29
2023-01-11T01:39:34.555Z,19.24
2023-01-11T01:40:35.144Z,19.36
2023-01-11T01:41:35.743Z,19.31
2023-01-11T01:42:36.399Z,19.24
2023-01-11T01:43:36.993Z,19.30
2023-01-11T01:44:37.591Z,19.29
2023-01-11T01:45:38.186Z,19.30
2023-01-11T01:46:38.847Z,19.22
2023-01-11T01:47:39.450Z,19.29
2023-01-11T01:48:40.105Z,19.31
2023-01-11T01:49:40.698Z,19.19
2023-01-11T01:50:41.297Z,19.29
2023-01-11T01:51:41.887Z,19.30
2023-01-11T01:52:42.493Z,19.24
2023-01-11T01:53:43.880Z,19.22
2023-01-11T01:54:44.477Z,19.19
2023-01-11T01:55:45.137Z,19.29
2023-01-11T01:56:45.786Z,19.21
2023-01-11T01:57:46.528Z,19.16
2023-01-11T01:58:47.123Z,19.21
2023-01-11T01:59:47.717Z,19.19
2023-01-11T02:00:48.312Z,19.12
2023-01-11T02:01:49.006Z,19.24
2023-01-11T02:02:49.655Z,19.24
2023-01-11T02:03:50.216Z,19.16
2023-01-11T02:04:50.809Z,19.19
2023-01-11T02:05:51.404Z,19.19
2023-01-11T02:06:52.043Z,19.18
2023-01-11T02:07:52.650Z,19.26
2023-01-11T02:08:53.256Z,19.15
2023-01-11T02:09:53.903Z,19.15
2023-01-11T02:10:54.515Z,19.16
2023-01-11T02:11:55.096Z,19.11
2023-01-11T02:12:55.688Z,19.11
2023-01-11T02:13:56.347Z,19.19
2023-01-11T02:14:56.944Z,19.15
2023-01-11T02:15:57.573Z,19.14
2023-01-11T02:16:58.159Z,19.14
2023-01-11T02:17:58.759Z,19.14
2023-01-11T02:18:59.347Z,19.09
2023-01-11T02:20:00.752Z,19.19
2023-01-11T02:21:01.406Z,19.12
2023-01-11T02:22:01.999Z,19.04
2023-01-11T02:23:02.595Z,19.07
2023-01-11T02:24:03.195Z,19.08
2023-01-11T02:25:03.849Z,19.18
2023-01-11T02:26:04.443Z,18.99
2023-01-11T02:27:05.041Z,19.09
2023-01-11T02:28:05.635Z,19.07
2023-01-11T02:29:06.232Z,19.14
2023-01-11T02:30:06.841Z,18.99
2023-01-11T02:31:07.473Z,19.08
2023-01-11T02:32:08.072Z,18.99
2023-01-11T02:33:08.668Z,18.99
2023-01-11T02:34:09.267Z,19.02
2023-01-11T02:35:10.022Z,19.07
2023-01-11T02:36:10.613Z,19.00
2023-01-11T02:37:11.267Z,19.02
2023-01-11T02:38:11.860Z,18.96
2023-01-11T02:39:12.454Z,18.99
2023-01-11T02:40:13.061Z,18.95
2023-01-11T02:41:13.647Z,19.00
2023-01-11T02:42:15.109Z,19.00
2023-01-11T02:43:15.692Z,18.88
2023-01-11T02:44:17.136Z,18.96
2023-01-11T02:45:17.732Z,18.90
2023-01-11T02:46:18.358Z,18.96
2023-01-11T02:47:18.986Z,18.88
2023-01-11T02:48:19.578Z,18.93
2023-01-11T02:49:20.171Z,18.96
2023-01-11T02:50:20.763Z,18.95
2023-01-11T02:51:21.363Z,18.96
2023-01-11T02:52:22.806Z,18.92
2023-01-11T02:53:23.406Z,18.86
2023-01-11T02:54:24.014Z,18.93
2023-01-11T02:55:24.655Z,18.90
2023-01-11T02:56:25.253Z,18.89
2023-01-11T02:57:25.894Z,18.86
2023-01-11T02:58:26.537Z,18.90
2023-01-11T02:59:27.135Z,18.83
2023-01-11T03:00:27.730Z,18.88
2023-01-11T03:01:28.365Z,18.90
2023-01-11T03:02:29.014Z,18.90
2023-01-11T03:03:29.675Z,18.81
2023-01-11T03:04:30.262Z,18.84
2023-01-11T03:05:30.952Z,18.80
2023-01-11T03:06:31.571Z,18.80
2023-01-11T03:07:32.163Z,18.78
2023-01-11T03:08:32.754Z,18.90
2023-01-11T03:09:33.351Z,18.80
2023-01-11T03:10:33.959Z,18.80
2023-01-11T03:11:34.542Z,18.78
2023-01-11T03:12:35.153Z,18.77
2023-01-11T03:13:35.740Z,18.78
2023-01-11T03:14:36.332Z,18.81
2023-01-11T03:15:36.929Z,18.78
2023-01-11T03:16:37.525Z,18.77
2023-01-11T03:17:38.117Z,18.81
2023-01-11T03:18:38.713Z,18.81
2023-01-11T03:19:39.315Z,18.71
2023-01-11T03:20:39.904Z,18.75
2023-01-11T03:21:40.509Z,18.74
2023-01-11T03:22:41.093Z,18.73
2023-01-11T03:23:41.691Z,18.74
2023-01-11T03:24:42.305Z,18.73
2023-01-11T03:25:42.878Z,18.77
2023-01-11T03:26:43.475Z,18.75
2023-01-11T03:27:44.072Z,18.75
2023-01-11T03:28:44.666Z,18.73
2023-01-11T03:29:45.265Z,18.73
2023-01-11T03:30:45.922Z,18.70
2023-01-11T03:31:46.513Z,18.73
2023-01-11T03:32:47.121Z,18.71
2023-01-11T03:33:47.711Z,18.63
2023-01-11T03:34:48.296Z,18.73
2023-01-11T03:35:48.889Z,18.74
2023-01-11T03:36:49.533Z,18.60
2023-01-11T03:37:50.133Z,18.66
2023-01-11T03:38:50.725Z,18.62
2023-01-11T03:39:51.322Z,18.60
2023-01-11T03:40:51.913Z,18.65
2023-01-11T03:41:52.508Z,18.68
2023-01-11T03:42:53.102Z,18.63
2023-01-11T03:43:53.698Z,18.66
2023-01-11T03:44:54.292Z,18.66
2023-01-11T03:45:54.892Z,18.68
2023-01-11T03:46:55.745Z,18.71
2023-01-11T03:47:56.342Z,18.62
2023-01-11T03:48:56.937Z,18.63
2023-01-11T03:49:57.542Z,18.63
2023-01-11T03:50:58.195Z,18.65
2023-01-11T03:51:58.789Z,18.63
2023-01-11T03:52:59.431Z,18.65
2023-01-11T03:54:00.037Z,18.70
2023-01-11T03:55:00.630Z,18.60
2023-01-11T03:56:01.272Z,18.66
2023-01-11T03:57:01.862Z,18.62
2023-01-11T03:58:02.458Z,18.62
2023-01-11T03:59:03.054Z,18.63
2023-01-11T04:00:03.656Z,18.63
2023-01-11T04:01:04.497Z,18.62
2023-01-11T04:02:05.141Z,18.66
2023-01-11T04:03:05.809Z,18.58
2023-01-11T04:04:06.559Z,18.58
2023-01-11T04:05:07.101Z,18.68
2023-01-11T04:06:07.697Z,18.58
2023-01-11T04:07:08.291Z,18.63
2023-01-11T04:08:08.890Z,18.65
2023-01-11T04:09:09.489Z,18.60
2023-01-11T04:10:10.102Z,18.60
2023-01-11T04:11:10.693Z,18.59
2023-01-11T04:12:11.292Z,18.60
2023-01-11T04:13:11.894Z,18.56
2023-01-11T04:14:12.483Z,18.56
2023-01-11T04:15:13.076Z,18.63
2023-01-11T04:16:13.707Z,18.59
2023-01-11T04:17:14.316Z,18.70
2023-01-11T04:18:14.912Z,18.58
2023-01-11T04:19:15.503Z,18.55
2023-01-11T04:20:16.099Z,18.58
2023-01-11T04:21:16.694Z,18.60
2023-01-11T04:22:17.294Z,18.59
2023-01-11T04:23:17.881Z,18.52
2023-01-11T04:24:18.500Z,18.66
2023-01-11T04:25:19.079Z,18.59
2023-01-11T04:26:19.671Z,18.59
2023-01-11T04:27:20.273Z,18.50
2023-01-11T04:28:20.867Z,18.50
2023-01-11T04:29:21.455Z,18.63
2023-01-11T04:30:22.054Z,18.56
2023-01-11T04:31:22.780Z,18.55
2023-01-11T04:32:23.362Z,18.50
2023-01-11T04:33:23.960Z,18.56
2023-01-11T04:34:24.549Z,18.53
2023-01-11T04:35:25.144Z,18.56
2023-01-11T04:36:25.737Z,18.53
2023-01-11T04:37:26.333Z,18.62
2023-01-11T04:38:26.930Z,18.56
2023-01-11T04:39:27.536Z,18.65
2023-01-11T04:40:28.968Z,18.53
2023-01-11T04:41:29.576Z,18.60
2023-01-11T04:42:30.156Z,18.55
2023-01-11T04:43:30.753Z,18.53
2023-01-11T04:44:32.215Z,18.66
2023-01-11T04:45:32.838Z,18.65
2023-01-11T04:46:33.445Z,18.60
2023-01-11T04:47:34.054Z,18.60
2023-01-11T04:48:35.497Z,18.59
2023-01-11T04:49:36.091Z,18.53
2023-01-11T04:50:37.562Z,18.43
2023-01-11T04:51:38.227Z,18.50
2023-01-11T04:52:38.841Z,18.44
2023-01-11T04:53:39.438Z,18.53
2023-01-11T04:54:40.034Z,18.55
2023-01-11T04:55:40.693Z,18.53
2023-01-11T04:56:41.287Z,18.63
2023-01-11T04:57:41.879Z,18.53
2023-01-11T04:58:42.475Z,18.55
2023-01-11T04:59:43.090Z,18.52
2023-01-11T05:00:43.769Z,18.53
2023-01-11T05:01:44.416Z,18.52
2023-01-11T05:02:45.011Z,18.55
2023-01-11T05:03:45.729Z,18.52
2023-01-11T05:04:46.407Z,18.44
2023-01-11T05:05:47.049Z,18.59
2023-01-11T05:06:47.703Z,18.59
2023-01-11T05:07:48.303Z,18.59
2023-01-11T05:08:48.920Z,18.52
2023-01-11T05:09:49.504Z,18.45
2023-01-11T05:10:50.110Z,18.47
2023-01-11T05:11:50.713Z,18.45
2023-01-11T05:12:51.299Z,18.53
2023-01-11T05:13:51.945Z,18.52
2023-01-11T05:14:52.547Z,18.52
2023-01-11T05:15:53.145Z,18.55
2023-01-11T05:16:53.750Z,18.45
2023-01-11T05:17:54.343Z,18.52
2023-01-11T05:18:54.950Z,18.55
2023-01-11T05:19:55.548Z,18.55
2023-01-11T05:20:56.212Z,18.55
2023-01-11T05:21:56.817Z,18.55
2023-01-11T05:22:57.407Z,18.47
2023-01-11T05:23:58.004Z,18.52
2023-01-11T05:24:58.600Z,18.55
2023-01-11T05:25:59.195Z,18.55
2023-01-11T05:26:59.793Z,18.52
2023-01-11T05:28:00.404Z,18.50
2023-01-11T05:29:01.062Z,18.53
2023-01-11T05:30:01.663Z,18.47
2023-01-11T05:31:02.255Z,18.56
2023-01-11T05:32:02.902Z,18.47
2023-01-11T05:33:03.547Z,18.44
2023-01-11T05:34:04.211Z,18.58
2023-01-11T05:35:04.806Z,18.49
2023-01-11T05:36:05.408Z,18.45
2023-01-11T05:37:06.003Z,18.49
2023-01-11T05:38:06.614Z,18.41
2023-01-11T05:39:07.203Z,18.38
2023-01-11T05:40:07.810Z,18.47
2023-01-11T05:41:08.414Z,18.47
2023-01-11T05:42:09.007Z,18.43
2023-01-11T05:43:09.599Z,18.44
2023-01-11T05:44:10.205Z,18.49
2023-01-11T05:45:10.932Z,18.43
2023-01-11T05:46:11.589Z,18.49
2023-01-11T05:47:12.192Z,18.43
2023-01-11T05:48:12.830Z,18.41
2023-01-11T05:49:13.430Z,18.45
2023-01-11T05:50:14.032Z,18.38
2023-01-11T05:51:14.618Z,18.43
2023-01-11T05:52:15.228Z,18.41
2023-01-11T05:53:15.830Z,18.38
2023-01-11T05:54:16.477Z,18.41
2023-01-11T05:55:17.074Z,18.44
2023-01-11T05:56:17.670Z,18.50
2023-01-11T05:57:18.261Z,18.43
2023-01-11T05:58:18.865Z,18.47
2023-01-11T05:59:19.469Z,18.47
2023-01-11T06:00:20.114Z,18.45
2023-01-11T06:01:20.703Z,18.43
2023-01-11T06:02:21.382Z,18.40
2023-01-11T06:03:22.094Z,18.44
2023-01-11T06:04:22.712Z,18.49
2023-01-11T06:05:23.299Z,18.49
2023-01-11T06:06:23.926Z,18.47
2023-01-11T06:07:24.544Z,18.41
2023-01-11T06:08:25.193Z,18.44
2023-01-11T06:09:25.788Z,18.47
2023-01-11T06:10:26.397Z,18.44
2023-01-11T06:11:26.981Z,18.44
2023-01-11T06:12:27.686Z,18.40
2023-01-11T06:13:28.288Z,18.47
2023-01-11T06:14:28.895Z,18.40
2023-01-11T06:15:29.495Z,18.43
2023-01-11T06:16:30.216Z,18.47
2023-01-11T06:17:31.664Z,18.38
2023-01-11T06:18:32.268Z,18.45
2023-01-11T06:19:32.863Z,18.40
2023-01-11T06:20:33.468Z,18.41
2023-01-11T06:21:34.065Z,18.40
2023-01-11T06:22:34.666Z,18.44
2023-01-11T06:23:35.269Z,18.40
2023-01-11T06:24:35.890Z,18.45
2023-01-11T06:25:36.530Z,18.37
2023-01-11T06:26:37.126Z,18.41
2023-01-11T06:27:37.728Z,18.43
2023-01-11T06:28:38.327Z,18.38
2023-01-11T06:29:38.919Z,18.41
2023-01-11T06:30:40.382Z,18.41
2023-01-11T06:31:41.001Z,18.45
2023-01-11T06:32:41.738Z,18.45
2023-01-11T06:33:42.380Z,18.37
2023-01-11T06:34:43.033Z,18.41
2023-01-11T06:35:43.619Z,18.34
2023-01-11T06:36:44.223Z,18.33
2023-01-11T06:37:44.868Z,18.31
2023-01-11T06:38:45.467Z,18.41
2023-01-11T06:39:46.061Z,18.37
2023-01-11T06:40:46.664Z,18.41
2023-01-11T06:41:47.257Z,18.43
2023-01-11T06:42:47.870Z,18.44
2023-01-11T06:43:48.455Z,18.34
2023-01-11T06:44:49.061Z,18.33
2023-01-11T06:45:49.718Z,18.38
2023-01-11T06:46:50.318Z,18.33
2023-01-11T06:47:50.917Z,18.37
2023-01-11T06:48:51.518Z,18.37
2023-01-11T06:49:52.117Z,18.35
2023-01-11T06:50:52.717Z,18.31
2023-01-11T06:51:53.582Z,18.38
2023-01-11T06:52:54.249Z,18.35
2023-01-11T06:53:54.907Z,18.35
2023-01-11T06:54:55.509Z,18.34
2023-01-11T06:55:56.106Z,18.34
2023-01-11T06:56:56.725Z,18.33
2023-01-11T06:57:57.370Z,18.34
2023-01-11T06:58:57.967Z,18.33
2023-01-11T06:59:58.710Z,18.31
2023-01-11T07:00:59.372Z,18.31
2023-01-11T07:02:00.043Z,18.35
2023-01-11T07:03:00.625Z,18.33
2023-01-11T07:04:01.223Z,18.38
2023-01-11T07:05:01.838Z,18.34
2023-01-11T07:06:02.422Z,18.29
2023-01-11T07:07:03.099Z,18.31
2023-01-11T07:08:03.686Z,18.33
2023-01-11T07:09:04.286Z,18.28
2023-01-11T07:10:04.907Z,18.37
2023-01-11T07:11:05.547Z,18.31
2023-01-11T07:12:06.148Z,18.35
2023-01-11T07:13:06.753Z,18.29
2023-01-11T07:14:07.359Z,18.34
2023-01-11T07:15:07.949Z,18.35
2023-01-11T07:16:08.599Z,18.28
2023-01-11T07:17:09.198Z,18.31
2023-01-11T07:18:09.780Z,18.28
2023-01-11T07:19:10.386Z,18.33
2023-01-11T07:20:10.974Z,18.28
2023-01-11T07:21:11.576Z,18.33
2023-01-11T07:22:12.175Z,18.33
2023-01-11T07:23:12.771Z,18.34
2023-01-11T07:24:13.363Z,18.31
2023-01-11T07:25:13.966Z,18.28
2023-01-11T07:26:14.635Z,18.29
2023-01-11T07:27:15.237Z,18.29
2023-01-11T07:28:15.838Z,18.25
2023-01-11T07:29:16.439Z,18.25
2023-01-11T07:30:17.040Z,18.26
2023-01-11T07:31:17.711Z,18.34
2023-01-11T07:32:18.311Z,18.26
2023-01-11T07:33:18.916Z,18.26
2023-01-11T07:34:19.508Z,18.26
2023-01-11T07:35:20.118Z,18.26
2023-01-11T07:36:20.708Z,18.29
2023-01-11T07:37:28.703Z,18.37
2023-01-11T07:38:22.958Z,18.29
2023-01-11T07:39:34.899Z,18.23
2023-01-11T07:40:25.197Z,18.29
2023-01-11T07:41:25.954Z,18.29
2023-01-11T07:42:26.544Z,18.28
2023-01-11T07:43:27.154Z,18.29
2023-01-11T07:44:27.739Z,18.31
2023-01-11T07:45:34.411Z,18.26
2023-01-11T07:46:30.088Z,18.28
2023-01-11T07:47:30.698Z,18.28
2023-01-11T07:48:31.360Z,18.28
2023-01-11T07:49:31.961Z,18.23
2023-01-11T07:50:32.705Z,18.28
2023-01-11T07:51:33.371Z,18.19
2023-01-11T07:52:33.979Z,18.22
2023-01-11T07:53:35.440Z,18.25
2023-01-11T07:54:36.034Z,18.25
2023-01-11T07:55:36.641Z,18.25
2023-01-11T07:56:37.235Z,18.22
2023-01-11T07:57:37.839Z,18.26
2023-01-11T07:58:38.434Z,18.28
2023-01-11T07:59:39.038Z,18.28
2023-01-11T08:00:39.639Z,18.29
2023-01-11T08:01:40.237Z,18.28
2023-01-11T08:02:41.557Z,18.29
2023-01-11T08:03:42.349Z,18.22
2023-01-11T08:04:42.875Z,18.34
2023-01-11T08:05:43.485Z,18.28
2023-01-11T08:06:44.080Z,18.31
2023-01-11T08:07:44.673Z,18.31
2023-01-11T08:08:45.265Z,18.28
2023-01-11T08:09:45.867Z,18.25
2023-01-11T08:10:46.469Z,18.34
2023-01-11T08:11:47.232Z,18.31
2023-01-11T08:12:50.001Z,18.34
2023-01-11T08:13:49.420Z,18.31
2023-01-11T08:14:50.025Z,18.33
2023-01-11T08:15:50.722Z,18.34
2023-01-11T08:16:51.341Z,18.29
2023-01-11T08:17:51.940Z,18.25
2023-01-11T08:18:52.544Z,18.25
2023-01-11T08:19:53.138Z,18.26
2023-01-11T08:20:53.737Z,18.29
2023-01-11T08:21:54.333Z,18.26
2023-01-11T08:22:54.928Z,18.34
2023-01-11T08:23:55.536Z,18.29
2023-01-11T08:24:56.131Z,18.23
2023-01-11T08:25:56.722Z,18.29
2023-01-11T08:26:57.356Z,18.26
2023-01-11T08:27:57.960Z,18.29
2023-01-11T08:28:58.548Z,18.26
2023-01-11T08:29:59.148Z,18.28
2023-01-11T08:30:59.749Z,18.29
2023-01-11T08:32:00.346Z,18.23
2023-01-11T08:33:00.946Z,18.26
2023-01-11T08:34:01.729Z,18.28
2023-01-11T08:35:02.318Z,18.25
2023-01-11T08:36:02.917Z,18.28
2023-01-11T08:37:03.516Z,18.25
2023-01-11T08:38:04.114Z,18.22
2023-01-11T08:39:04.719Z,18.26
2023-01-11T08:40:05.312Z,18.18
2023-01-11T08:41:05.911Z,18.20
2023-01-11T08:42:06.508Z,18.22
2023-01-11T08:43:07.104Z,18.25
2023-01-11T08:44:07.711Z,18.25
2023-01-11T08:45:08.523Z,18.22
2023-01-11T08:46:09.181Z,18.23
2023-01-11T08:47:09.783Z,18.18
2023-01-11T08:48:10.441Z,18.20
2023-01-11T08:49:11.031Z,18.33
2023-01-11T08:50:11.637Z,18.18
2023-01-11T08:51:12.234Z,18.20
2023-01-11T08:52:12.835Z,18.19
2023-01-11T08:53:13.433Z,18.23
2023-01-11T08:54:14.086Z,18.22
2023-01-11T08:55:14.725Z,18.19
2023-01-11T08:56:15.327Z,18.26
2023-01-11T08:57:15.969Z,18.28
2023-01-11T08:58:16.621Z,18.29
2023-01-11T08:59:17.219Z,18.19
2023-01-11T09:00:17.820Z,18.22
2023-01-11T09:01:18.446Z,18.19
2023-01-11T09:02:19.070Z,18.18
2023-01-11T09:03:19.731Z,18.19
2023-01-11T09:04:25.222Z,18.11
2023-01-11T09:05:21.061Z,18.18
2023-01-11T09:06:21.676Z,18.18
2023-01-11T09:07:22.265Z,18.23
2023-01-11T09:08:22.864Z,18.22
2023-01-11T09:09:23.457Z,18.19
2023-01-11T09:10:24.068Z,18.25
2023-01-11T09:11:24.655Z,18.15
2023-01-11T09:12:25.260Z,18.33
2023-01-11T09:13:25.923Z,18.31
2023-01-11T09:14:26.526Z,18.23
2023-01-11T09:15:27.195Z,18.22
2023-01-11T09:16:27.791Z,18.18
2023-01-11T09:17:28.394Z,18.20
2023-01-11T09:18:29.854Z,18.20
2023-01-11T09:19:30.463Z,18.26
2023-01-11T09:20:31.055Z,18.20
2023-01-11T09:21:31.655Z,18.18
2023-01-11T09:22:32.305Z,18.18
2023-01-11T09:23:32.899Z,18.26
2023-01-11T09:24:33.501Z,18.13
2023-01-11T09:25:34.094Z,18.23
2023-01-11T09:26:34.767Z,18.22
2023-01-11T09:27:35.363Z,18.25
2023-01-11T09:28:36.029Z,18.11
2023-01-11T09:29:37.522Z,18.13
2023-01-11T09:30:38.217Z,18.18
2023-01-11T09:31:38.915Z,18.23
2023-01-11T09:32:39.534Z,18.15
2023-01-11T09:33:40.127Z,18.22
2023-01-11T09:34:40.738Z,18.11
2023-01-11T09:35:41.334Z,18.13
2023-01-11T09:36:41.938Z,18.20
2023-01-11T09:37:43.329Z,18.19
2023-01-11T09:38:44.023Z,18.19
2023-01-11T09:39:44.616Z,18.19
2023-01-11T09:40:45.281Z,18.15
2023-01-11T09:41:45.875Z,18.18
2023-01-11T09:42:46.539Z,18.23
2023-01-11T09:43:47.133Z,18.13
2023-01-11T09:44:47.952Z,18.13
2023-01-11T09:45:48.627Z,18.20
2023-01-11T09:46:49.295Z,18.22
2023-01-11T09:47:49.883Z,18.16
2023-01-11T09:48:50.470Z,18.20
2023-01-11T09:49:51.074Z,18.15
2023-01-11T09:50:51.745Z,18.23
2023-01-11T09:51:53.212Z,18.20
2023-01-11T09:52:53.810Z,18.22
2023-01-11T09:53:54.409Z,18.15
2023-01-11T09:54:55.053Z,18.20
2023-01-11T09:55:55.658Z,18.20
2023-01-11T09:56:56.334Z,18.22
2023-01-11T09:57:56.938Z,18.28
2023-01-11T09:58:57.533Z,18.19
2023-01-11T09:59:58.136Z,18.18
2023-01-11T10:01:01.118Z,18.19
2023-01-11T10:02:00.381Z,18.18
2023-01-11T10:03:01.821Z,18.26
2023-01-11T10:04:02.422Z,18.19
2023-01-11T10:05:03.046Z,18.33
2023-01-11T10:06:03.647Z,18.18
2023-01-11T10:07:04.316Z,18.25
2023-01-11T10:18:26.730Z,18.25
2023-01-11T10:18:27.730Z,18.25
2023-01-11T10:18:29.449Z,18.19
2023-01-11T10:18:32.085Z,18.25
2023-01-11T10:18:42.885Z,18.18
2023-01-11T10:19:40.753Z,18.33
2023-01-11T10:20:24.290Z,18.25
2023-01-11T10:21:24.739Z,18.28
2023-01-11T10:22:26.141Z,18.25
2023-01-11T10:23:26.734Z,18.29
2023-01-11T10:24:27.396Z,18.29
2023-01-11T10:25:28.011Z,18.29
2023-01-11T10:26:28.612Z,18.33
2023-01-11T10:27:29.241Z,18.26
2023-01-11T10:28:29.867Z,18.28
2023-01-11T10:29:30.455Z,18.29
2023-01-11T10:30:31.057Z,18.28
2023-01-11T10:31:31.678Z,18.31
2023-01-11T10:32:32.284Z,18.28
2023-01-11T10:33:32.874Z,18.37
2023-01-11T10:34:33.479Z,18.37
2023-01-11T10:35:34.073Z,18.33
2023-01-11T10:36:34.707Z,18.31
2023-01-11T10:37:35.292Z,18.34
2023-01-11T10:38:35.904Z,18.33
2023-01-11T10:39:36.495Z,18.35
2023-01-11T10:40:37.894Z,18.29
2023-01-11T10:41:38.538Z,18.35
2023-01-11T10:42:39.232Z,18.34
2023-01-11T10:43:39.828Z,18.37
2023-01-11T10:44:40.441Z,18.37
2023-01-11T10:45:41.083Z,18.38
2023-01-11T10:46:41.673Z,18.31
2023-01-11T10:47:42.265Z,18.37
2023-01-11T10:48:42.865Z,18.45
2023-01-11T10:49:43.489Z,18.45
2023-01-11T10:50:44.125Z,18.49
2023-01-11T10:51:44.714Z,18.41
2023-01-11T10:52:45.323Z,18.43
2023-01-11T10:53:45.984Z,18.43
2023-01-11T10:54:47.379Z,18.38
2023-01-11T10:55:48.178Z,18.45
2023-01-11T10:57:02.784Z,18.41
2023-01-11T10:58:00.440Z,18.37
2023-01-11T10:58:52.075Z,18.44
2023-01-11T10:59:52.671Z,18.37
2023-01-11T11:00:53.495Z,18.41
2023-01-11T11:01:54.191Z,18.45
2023-01-11T11:02:54.783Z,18.41
2023-01-11T11:03:55.475Z,18.43
2023-01-11T11:04:56.087Z,18.45
2023-01-11T11:05:57.524Z,18.38
2023-01-11T11:06:58.192Z,18.40
2023-01-11T11:07:58.792Z,18.38
2023-01-11T11:08:59.447Z,18.45
2023-01-11T11:10:00.041Z,18.41
2023-01-11T11:11:00.707Z,18.40
2023-01-11T11:12:01.301Z,18.40
2023-01-11T11:13:01.914Z,18.45
2023-01-11T11:14:02.554Z,18.40
2023-01-11T11:15:03.419Z,18.40
2023-01-11T11:16:04.104Z,18.44
2023-01-11T11:17:04.706Z,18.40
2023-01-11T11:18:05.315Z,18.44
2023-01-11T11:19:05.973Z,18.41
2023-01-11T11:20:06.571Z,18.43
2023-01-11T11:21:07.172Z,18.43
2023-01-11T11:22:07.768Z,18.40
2023-01-11T11:23:08.433Z,18.41
2023-01-11T11:24:09.037Z,18.37
2023-01-11T11:25:09.633Z,18.45
2023-01-11T11:26:10.230Z,18.38
2023-01-11T11:27:11.875Z,18.41
2023-01-11T11:28:12.480Z,18.41
2023-01-11T11:29:13.078Z,18.38
2023-01-11T11:30:13.709Z,18.47
2023-01-11T11:31:14.357Z,18.40
2023-01-11T11:32:14.963Z,18.45
2023-01-11T11:33:15.580Z,18.41
2023-01-11T11:34:16.159Z,18.41
2023-01-11T11:35:16.931Z,18.43
2023-01-11T11:36:17.631Z,18.37
2023-01-11T11:37:18.268Z,18.37
2023-01-11T11:38:18.861Z,18.45
2023-01-11T11:39:19.462Z,18.34
2023-01-11T11:40:20.065Z,18.38
2023-01-11T11:41:20.658Z,18.41
2023-01-11T11:42:21.258Z,18.41
2023-01-11T11:43:21.922Z,18.40
2023-01-11T11:44:22.524Z,18.43
2023-01-11T11:45:23.163Z,18.41
2023-01-11T11:46:23.901Z,18.38
2023-01-11T11:47:24.506Z,18.41
2023-01-11T11:48:25.125Z,18.41
2023-01-11T11:49:25.803Z,18.40
2023-01-11T11:50:43.290Z,18.43
2023-01-11T11:51:27.989Z,18.43
2023-01-11T11:52:28.583Z,18.33
2023-01-11T11:53:29.190Z,18.43
2023-01-11T11:54:29.852Z,18.41
2023-01-11T11:55:30.452Z,18.40
2023-01-11T11:56:31.057Z,18.37
2023-01-11T11:57:31.672Z,18.41
2023-01-11T11:58:32.267Z,18.43
2023-01-11T11:59:32.886Z,18.44
2023-01-11T12:00:33.507Z,18.40
2023-01-11T12:01:34.170Z,18.40
2023-01-11T12:02:34.833Z,18.45
2023-01-11T12:03:35.422Z,18.41
2023-01-11T12:04:36.015Z,18.37
2023-01-11T12:05:36.619Z,18.45
2023-01-11T12:06:37.213Z,18.41
2023-01-11T12:07:49.741Z,18.43
2023-01-11T12:08:38.656Z,18.43
2023-01-11T12:09:39.252Z,18.45
2023-01-11T12:10:39.848Z,18.41
2023-01-11T12:11:40.552Z,18.40
2023-01-11T12:12:41.195Z,18.35
2023-01-11T12:13:41.798Z,18.35
2023-01-11T12:14:42.396Z,18.38
2023-01-11T12:15:42.999Z,18.38
2023-01-11T12:16:43.641Z,18.47
2023-01-11T12:17:44.228Z,18.43
2023-01-11T12:18:44.818Z,18.41
2023-01-11T12:19:45.423Z,18.45
2023-01-11T12:20:46.083Z,18.37
2023-01-11T12:21:46.687Z,18.43
2023-01-11T12:22:47.280Z,18.40
2023-01-11T12:23:47.925Z,18.41
2023-01-11T12:24:48.550Z,18.38
2023-01-11T12:25:49.151Z,18.40
2023-01-11T12:26:49.830Z,18.41
2023-01-11T12:27:50.408Z,18.41
2023-01-11T12:28:51.005Z,18.43
2023-01-11T12:29:51.668Z,18.40
2023-01-11T12:30:53.150Z,18.37
2023-01-11T12:31:53.782Z,18.38
2023-01-11T12:32:54.610Z,18.38
2023-01-11T12:33:55.251Z,18.49
2023-01-11T12:34:55.846Z,18.38
2023-01-11T12:35:57.318Z,18.40
2023-01-11T12:36:58.016Z,18.41
2023-01-11T12:37:58.617Z,18.40
2023-01-11T12:38:59.300Z,18.37
2023-01-11T12:39:59.974Z,18.45
2023-01-11T12:41:00.567Z,18.41
2023-01-11T12:42:01.178Z,18.40
2023-01-11T12:43:01.838Z,18.40
2023-01-11T12:44:02.439Z,18.45
2023-01-11T12:45:03.037Z,18.43
2023-01-11T12:46:03.723Z,18.38
2023-01-11T12:47:04.301Z,18.45
2023-01-11T12:48:04.903Z,18.40
2023-01-11T12:49:05.506Z,18.45
2023-01-11T12:50:06.100Z,18.37
2023-01-11T12:51:06.762Z,18.38
2023-01-11T12:52:07.358Z,18.47
2023-01-11T12:53:07.950Z,18.41
2023-01-11T12:54:08.558Z,18.38
2023-01-11T12:55:09.148Z,18.43
2023-01-11T12:56:09.750Z,18.43
2023-01-11T12:57:10.345Z,18.40
2023-01-11T12:58:14.096Z,18.41
2023-01-11T12:59:12.536Z,18.44
2023-01-11T13:00:13.226Z,18.37
2023-01-11T13:01:13.938Z,18.34
2023-01-11T13:02:14.538Z,18.31
2023-01-11T13:03:15.119Z,18.31
2023-01-11T13:04:15.733Z,18.38
2023-01-11T13:05:16.316Z,18.35
2023-01-11T13:06:16.929Z,18.34
2023-01-11T13:07:17.516Z,18.34